createdAt,value
2022-11-13T00:00:42.000Z,998.39
2022-11-13T00:05:36.000Z,998.40
2022-11-13T00:10:30.000Z,998.35
2022-11-13T00:15:25.000Z,998.36
2022-11-13T00:20:19.000Z,998.28
2022-11-13T00:25:12.000Z,998.26
2022-11-13T00:30:06.000Z,998.22
2022-11-13T00:35:00.000Z,998.30
2022-11-13T00:39:54.000Z,998.22
2022-11-13T00:44:48.000Z,998.09
2022-11-13T00:49:42.000Z,998.13
2022-11-13T00:54:37.000Z,998.08
2022-11-13T00:59:30.000Z,998.08
2022-11-13T01:04:24.000Z,998.03
2022-11-13T01:09:18.000Z,998.03
2022-11-13T01:14:12.000Z,998.06
2022-11-13T01:19:06.000Z,997.97
2022-11-13T01:24:00.000Z,998.10
2022-11-13T01:28:55.000Z,998.05
2022-11-13T01:33:49.000Z,997.90
2022-11-13T01:38:43.000Z,997.82
2022-11-13T01:43:37.000Z,997.84
2022-11-13T01:48:30.000Z,997.78
2022-11-13T01:53:24.000Z,997.74
2022-11-13T01:58:17.000Z,997.74
2022-11-13T02:03:11.000Z,997.81
2022-11-13T02:08:05.000Z,997.68
2022-11-13T02:12:59.000Z,997.58
2022-11-13T02:27:35.000Z,997.42
2022-11-13T02:32:29.000Z,997.41
2022-11-13T02:37:23.000Z,997.29
2022-11-13T02:51:58.000Z,997.17
2022-11-13T02:56:52.000Z,997.11
2022-11-13T03:11:28.000Z,997.16
2022-11-13T03:16:23.000Z,997.19
2022-11-13T03:21:16.000Z,997.15
2022-11-13T03:35:52.000Z,997.06
2022-11-13T03:40:47.000Z,997.10
2022-11-13T03:55:22.000Z,996.99
2022-11-13T04:00:16.000Z,996.88
2022-11-13T04:14:53.000Z,996.80
2022-11-13T04:29:30.000Z,996.68
2022-11-13T04:44:08.000Z,996.48
2022-11-13T04:58:45.000Z,996.33
2022-11-13T05:13:22.000Z,996.29
2022-11-13T05:27:53.000Z,996.07
2022-11-13T05:42:28.000Z,996.02
2022-11-13T05:57:06.000Z,995.94
2022-11-13T06:11:45.000Z,996.09
2022-11-13T06:26:16.000Z,995.99
2022-11-13T06:40:54.000Z,995.72
2022-11-13T06:55:33.000Z,995.51
2022-11-13T07:10:11.000Z,995.47
2022-11-13T07:24:47.000Z,995.35
2022-11-13T07:39:24.000Z,995.38
2022-11-13T07:54:02.000Z,995.29
2022-11-13T08:08:41.000Z,995.28
2022-11-13T08:23:20.000Z,995.16
2022-11-13T08:37:57.000Z,995.03
2022-11-13T08:42:52.000Z,995.07
2022-11-13T08:47:47.000Z,995.14
2022-11-13T08:52:43.000Z,995.09
2022-11-13T08:57:38.000Z,995.00
2022-11-13T09:02:34.000Z,994.98
2022-11-13T09:07:29.000Z,994.90
2022-11-13T09:12:25.000Z,994.82
2022-11-13T09:17:20.000Z,994.80
2022-11-13T09:22:15.000Z,994.71
2022-11-13T09:27:10.000Z,994.68
2022-11-13T09:32:04.000Z,994.51
2022-11-13T09:36:59.000Z,994.49
2022-11-13T09:41:54.000Z,994.42
2022-11-13T09:46:49.000Z,994.46
2022-11-13T09:51:44.000Z,994.40
2022-11-13T09:56:39.000Z,994.47
2022-11-13T10:01:34.000Z,994.39
2022-11-13T10:06:29.000Z,994.35
2022-11-13T10:11:24.000Z,994.37
2022-11-13T10:16:18.000Z,994.30
2022-11-13T10:21:13.000Z,994.25
2022-11-13T10:26:07.000Z,994.11
2022-11-13T10:31:04.000Z,994.05
2022-11-13T10:35:56.000Z,994.03
2022-11-13T10:40:51.000Z,993.96
2022-11-13T10:45:46.000Z,993.75
2022-11-13T10:50:39.000Z,993.81
2022-11-13T10:55:31.000Z,993.76
2022-11-13T11:00:25.000Z,993.78
2022-11-13T11:05:21.000Z,993.74
2022-11-13T11:10:15.000Z,993.65
2022-11-13T11:15:10.000Z,993.67
2022-11-13T11:20:05.000Z,993.52
2022-11-13T11:25:00.000Z,993.40
2022-11-13T11:29:55.000Z,993.26
2022-11-13T11:34:50.000Z,993.20
2022-11-13T11:39:45.000Z,993.14
2022-11-13T11:44:40.000Z,992.97
2022-11-13T11:49:34.000Z,992.75
2022-11-13T11:54:29.000Z,992.74
2022-11-13T11:59:21.000Z,992.66
2022-11-13T12:04:16.000Z,992.62
2022-11-13T12:09:11.000Z,992.52
2022-11-13T12:14:06.000Z,992.46
2022-11-13T12:19:01.000Z,992.47
2022-11-13T12:23:56.000Z,992.40
2022-11-13T12:28:51.000Z,992.33
2022-11-13T12:33:46.000Z,992.19
2022-11-13T12:38:41.000Z,992.19
2022-11-13T12:43:35.000Z,992.08
2022-11-13T12:48:30.000Z,992.03
2022-11-13T12:53:24.000Z,991.83
2022-11-13T12:58:19.000Z,991.71
2022-11-13T13:03:14.000Z,991.69
2022-11-13T13:08:08.000Z,991.64
2022-11-13T13:13:03.000Z,991.64
2022-11-13T13:17:57.000Z,991.64
2022-11-13T13:22:52.000Z,991.46
2022-11-13T13:27:47.000Z,991.58
2022-11-13T13:32:41.000Z,991.44
2022-11-13T13:37:34.000Z,991.42
2022-11-13T13:42:29.000Z,991.27
2022-11-13T13:47:23.000Z,991.10
2022-11-13T13:52:18.000Z,991.22
2022-11-13T13:57:12.000Z,991.21
2022-11-13T14:02:05.000Z,991.28
2022-11-13T14:06:59.000Z,991.18
2022-11-13T14:11:54.000Z,991.00
2022-11-13T14:16:48.000Z,990.92
2022-11-13T14:21:42.000Z,990.84
2022-11-13T14:26:36.000Z,990.64
2022-11-13T14:31:30.000Z,990.68
2022-11-13T14:36:24.000Z,990.72
2022-11-13T14:41:19.000Z,990.64
2022-11-13T14:46:11.000Z,990.61
2022-11-13T14:51:06.000Z,990.49
2022-11-13T14:55:59.000Z,990.54
2022-11-13T15:00:54.000Z,990.31
2022-11-13T15:05:47.000Z,990.32
2022-11-13T15:10:40.000Z,990.28
2022-11-13T15:15:33.000Z,990.19
2022-11-13T15:20:27.000Z,990.26
2022-11-13T15:25:20.000Z,990.22
2022-11-13T15:30:14.000Z,989.97
2022-11-13T15:35:07.000Z,990.02
2022-11-13T15:40:01.000Z,990.06
2022-11-13T15:44:55.000Z,990.05
2022-11-13T15:49:49.000Z,990.04
2022-11-13T15:54:43.000Z,990.01
2022-11-13T15:59:37.000Z,990.01
2022-11-13T16:04:31.000Z,989.95
2022-11-13T16:09:25.000Z,989.91
2022-11-13T16:14:18.000Z,989.91
2022-11-13T16:19:12.000Z,989.85
2022-11-13T16:24:07.000Z,989.75
2022-11-13T16:29:04.000Z,989.70
2022-11-13T16:33:55.000Z,989.69
2022-11-13T16:38:49.000Z,989.64
2022-11-13T16:43:44.000Z,989.60
2022-11-13T16:48:38.000Z,989.66
2022-11-13T16:53:32.000Z,989.73
2022-11-13T16:58:26.000Z,989.61
2022-11-13T17:03:19.000Z,989.61
2022-11-13T17:13:08.000Z,989.67
2022-11-13T17:18:03.000Z,989.69
2022-11-13T17:22:57.000Z,989.62
2022-11-13T17:27:51.000Z,989.66
2022-11-13T17:32:45.000Z,989.58
2022-11-13T17:37:39.000Z,989.62
2022-11-13T17:42:34.000Z,989.50
2022-11-13T17:47:28.000Z,989.47
2022-11-13T17:52:23.000Z,989.49
2022-11-13T17:57:17.000Z,989.45
2022-11-13T18:02:12.000Z,989.47
2022-11-13T18:07:06.000Z,989.41
2022-11-13T18:12:00.000Z,989.35
2022-11-13T18:16:52.000Z,989.36
2022-11-13T18:21:46.000Z,989.34
2022-11-13T18:26:40.000Z,989.28
2022-11-13T18:31:32.000Z,989.26
2022-11-13T18:36:23.000Z,989.18
2022-11-13T18:41:17.000Z,989.14
2022-11-13T18:46:11.000Z,989.21
2022-11-13T18:51:05.000Z,989.13
2022-11-13T18:55:59.000Z,989.10
2022-11-13T19:00:52.000Z,989.11
2022-11-13T19:05:46.000Z,989.18
2022-11-13T19:10:40.000Z,989.01
2022-11-13T19:15:33.000Z,988.89
2022-11-13T19:20:27.000Z,988.80
2022-11-13T19:25:21.000Z,988.86
2022-11-13T19:30:15.000Z,988.73
2022-11-13T19:35:10.000Z,988.71
2022-11-13T19:40:04.000Z,988.57
2022-11-13T19:44:58.000Z,988.63
2022-11-13T19:49:53.000Z,988.59
2022-11-13T19:54:47.000Z,988.59
2022-11-13T19:59:41.000Z,988.54
2022-11-13T20:04:36.000Z,988.53
2022-11-13T20:09:30.000Z,988.47
2022-11-13T20:14:25.000Z,988.38
2022-11-13T20:19:19.000Z,988.29
2022-11-13T20:24:13.000Z,988.38
2022-11-13T20:29:07.000Z,988.39
2022-11-13T20:34:01.000Z,988.33
2022-11-13T20:38:55.000Z,988.32
2022-11-13T20:43:50.000Z,988.38
2022-11-13T20:48:44.000Z,988.30
2022-11-13T20:53:38.000Z,988.24
2022-11-13T20:58:33.000Z,988.32
2022-11-13T21:03:28.000Z,988.33
2022-11-13T21:08:22.000Z,988.31
2022-11-13T21:13:16.000Z,988.33
2022-11-13T21:18:10.000Z,988.23
2022-11-13T21:23:04.000Z,988.10
2022-11-13T21:27:59.000Z,988.07
2022-11-13T21:32:53.000Z,988.13
2022-11-13T21:37:47.000Z,988.04
2022-11-13T21:42:42.000Z,988.09
2022-11-13T21:47:35.000Z,988.00
2022-11-13T21:52:28.000Z,987.96
2022-11-13T21:57:22.000Z,987.84
2022-11-13T22:02:16.000Z,987.87
2022-11-13T22:07:11.000Z,987.81
2022-11-13T22:12:05.000Z,987.71
2022-11-13T22:16:59.000Z,987.66
2022-11-13T22:21:53.000Z,987.61
2022-11-13T22:26:46.000Z,987.63
2022-11-13T22:31:40.000Z,987.55
2022-11-13T22:36:33.000Z,987.45
2022-11-13T22:41:28.000Z,987.51
2022-11-13T22:46:22.000Z,987.50
2022-11-13T22:51:16.000Z,987.57
2022-11-13T22:56:10.000Z,987.36
2022-11-13T23:01:04.000Z,987.38
2022-11-13T23:05:58.000Z,987.28
2022-11-13T23:10:53.000Z,987.32
2022-11-13T23:15:47.000Z,987.23
2022-11-13T23:20:40.000Z,987.29
2022-11-13T23:25:35.000Z,987.25
2022-11-13T23:30:29.000Z,987.20
2022-11-13T23:35:23.000Z,987.09
2022-11-13T23:40:17.000Z,987.10
2022-11-13T23:45:12.000Z,986.98
2022-11-13T23:50:05.000Z,987.01
2022-11-13T23:54:59.000Z,986.98
2022-11-13T23:59:54.000Z,986.89
